createdAt,value
2022-10-01T00:00:32.425Z,963.12
2022-10-01T00:01:22.454Z,963.09
2022-10-01T00:02:12.400Z,963.09
2022-10-01T00:03:02.456Z,963.13
2022-10-01T00:03:52.378Z,963.17
2022-10-01T00:04:42.364Z,963.10
2022-10-01T00:05:32.354Z,963.12
2022-10-01T00:06:22.385Z,963.16
2022-10-01T00:07:12.355Z,963.12
2022-10-01T00:08:02.325Z,963.13
2022-10-01T00:08:52.316Z,963.10
2022-10-01T00:09:42.311Z,963.10
2022-10-01T00:10:32.296Z,963.14
2022-10-01T00:11:22.297Z,963.14
2022-10-01T00:12:12.274Z,963.09
2022-10-01T00:13:02.295Z,963.13
2022-10-01T00:13:52.263Z,963.13
2022-10-01T00:14:42.253Z,963.13
2022-10-01T00:15:32.243Z,963.12
2022-10-01T00:16:22.265Z,963.13
2022-10-01T00:17:12.221Z,963.15
2022-10-01T00:18:02.212Z,963.14
2022-10-01T00:18:52.233Z,963.15
2022-10-01T00:19:42.204Z,963.18
2022-10-01T00:20:32.182Z,963.12
2022-10-01T00:21:22.176Z,963.18
2022-10-01T00:22:12.169Z,963.12
2022-10-01T00:23:02.162Z,963.04
2022-10-01T00:23:52.149Z,963.03
2022-10-01T00:24:42.171Z,963.08
2022-10-01T00:25:32.131Z,963.01
2022-10-01T00:26:22.124Z,962.99
2022-10-01T00:27:12.110Z,963.01
2022-10-01T00:28:02.143Z,963.06
2022-10-01T00:28:52.094Z,963.07
2022-10-01T00:29:42.083Z,963.07
2022-10-01T00:30:32.092Z,963.08
2022-10-01T00:31:22.108Z,963.01
2022-10-01T00:32:12.053Z,963.03
2022-10-01T00:33:02.054Z,963.03
2022-10-01T00:33:52.042Z,963.04
2022-10-01T00:34:42.030Z,963.01
2022-10-01T00:35:32.038Z,963.02
2022-10-01T00:36:22.220Z,963.05
2022-10-01T00:37:11.999Z,963.03
2022-10-01T00:38:01.993Z,963.06
2022-10-01T00:38:51.983Z,963.07
2022-10-01T00:39:41.969Z,963.06
2022-10-01T00:40:32.010Z,963.05
2022-10-01T00:41:21.959Z,963.06
2022-10-01T00:42:11.959Z,963.07
2022-10-01T00:43:01.940Z,963.09
2022-10-01T00:43:51.920Z,963.10
2022-10-01T00:44:41.921Z,963.12
2022-10-01T00:45:31.960Z,963.19
2022-10-01T00:46:21.927Z,963.18
2022-10-01T00:47:11.889Z,963.19
2022-10-01T00:48:01.911Z,963.20
2022-10-01T00:48:51.868Z,963.20
2022-10-01T00:49:41.867Z,963.22
2022-10-01T00:50:31.858Z,963.22
2022-10-01T00:51:21.848Z,963.27
2022-10-01T00:52:11.827Z,963.25
2022-10-01T00:53:01.828Z,963.24
2022-10-01T00:53:51.839Z,963.18
2022-10-01T00:54:41.807Z,963.20
2022-10-01T00:55:31.800Z,963.17
2022-10-01T00:56:21.788Z,963.22
2022-10-01T00:57:11.779Z,963.21
2022-10-01T00:58:01.777Z,963.21
2022-10-01T00:58:51.762Z,963.19
2022-10-01T00:59:41.778Z,963.18
2022-10-01T01:00:31.752Z,963.18
2022-10-01T01:01:21.770Z,963.19
2022-10-01T01:02:11.740Z,963.16
2022-10-01T01:03:01.707Z,963.11
2022-10-01T01:03:51.708Z,963.11
2022-10-01T01:04:41.694Z,963.12
2022-10-01T01:05:31.707Z,963.15
2022-10-01T01:06:21.677Z,963.19
2022-10-01T01:07:11.665Z,963.21
2022-10-01T01:08:01.670Z,963.16
2022-10-01T01:08:51.646Z,963.18
2022-10-01T01:09:41.632Z,963.20
2022-10-01T01:10:31.633Z,963.20
2022-10-01T01:11:21.645Z,963.21
2022-10-01T01:12:11.613Z,963.19
2022-10-01T01:13:01.598Z,963.22
2022-10-01T01:13:51.594Z,963.20
2022-10-01T01:14:41.585Z,963.24
2022-10-01T01:15:31.634Z,963.24
2022-10-01T01:16:21.602Z,963.16
2022-10-01T01:17:11.576Z,963.14
2022-10-01T01:18:01.546Z,963.14
2022-10-01T01:18:51.534Z,963.15
2022-10-01T01:19:41.523Z,963.08
2022-10-01T01:20:31.519Z,963.11
2022-10-01T01:21:21.513Z,963.10
2022-10-01T01:22:11.511Z,963.06
2022-10-01T01:23:01.503Z,963.04
2022-10-01T01:23:51.482Z,963.02
2022-10-01T01:24:41.473Z,963.04
2022-10-01T01:25:31.462Z,963.02
2022-10-01T01:26:21.474Z,963.03
2022-10-01T01:27:11.443Z,963.03
2022-10-01T01:28:01.455Z,963.03
2022-10-01T01:28:51.460Z,963.01
2022-10-01T01:29:41.413Z,963.03
2022-10-01T01:30:31.402Z,963.01
2022-10-01T01:31:21.424Z,962.94
2022-10-01T01:32:14.673Z,962.91
2022-10-01T01:33:01.441Z,962.92
2022-10-01T01:33:51.372Z,962.91
2022-10-01T01:34:41.351Z,962.90
2022-10-01T01:35:31.351Z,962.90
2022-10-01T01:36:21.338Z,962.87
2022-10-01T01:37:11.334Z,962.81
2022-10-01T01:38:01.329Z,962.82
2022-10-01T01:38:51.350Z,962.77
2022-10-01T01:39:41.308Z,962.75
2022-10-01T01:40:31.293Z,962.76
2022-10-01T01:41:21.281Z,962.78
2022-10-01T01:42:11.279Z,962.69
2022-10-01T01:43:01.272Z,962.66
2022-10-01T01:43:51.292Z,962.67
2022-10-01T01:44:41.252Z,962.67
2022-10-01T01:45:31.309Z,962.69
2022-10-01T01:46:21.289Z,962.70
2022-10-01T01:47:11.221Z,962.68
2022-10-01T01:48:01.209Z,962.66
2022-10-01T01:48:51.209Z,962.66
2022-10-01T01:49:41.216Z,962.60
2022-10-01T01:50:31.189Z,962.61
2022-10-01T01:51:21.169Z,962.59
2022-10-01T01:52:11.177Z,962.56
2022-10-01T01:53:01.149Z,962.57
2022-10-01T01:53:51.149Z,962.53
2022-10-01T01:54:41.128Z,962.51
2022-10-01T01:55:31.339Z,962.51
2022-10-01T01:56:21.117Z,962.47
2022-10-01T01:57:11.107Z,962.44
2022-10-01T01:58:01.098Z,962.44
2022-10-01T01:58:51.092Z,962.37
2022-10-01T01:59:41.077Z,962.38
2022-10-01T02:00:31.078Z,962.35
2022-10-01T02:01:21.090Z,962.35
2022-10-01T02:02:11.164Z,962.34
2022-10-01T02:03:01.058Z,962.34
2022-10-01T02:03:51.048Z,962.31
2022-10-01T02:04:41.024Z,962.28
2022-10-01T02:05:31.021Z,962.25
2022-10-01T02:06:21.004Z,962.25
2022-10-01T02:07:11.214Z,962.21
2022-10-01T02:08:00.987Z,962.21
2022-10-01T02:08:50.985Z,962.20
2022-10-01T02:09:40.974Z,962.20
2022-10-01T02:10:30.959Z,962.18
2022-10-01T02:11:20.947Z,962.19
2022-10-01T02:12:10.944Z,962.21
2022-10-01T02:13:00.955Z,962.16
2022-10-01T02:13:50.943Z,962.20
2022-10-01T02:14:40.934Z,962.18
2022-10-01T02:15:30.909Z,962.20
2022-10-01T02:16:20.899Z,962.13
2022-10-01T02:17:10.886Z,962.13
2022-10-01T02:18:00.896Z,962.08
2022-10-01T02:18:50.877Z,962.13
2022-10-01T02:19:40.856Z,962.15
2022-10-01T02:20:30.916Z,962.17
2022-10-01T02:21:20.835Z,962.14
2022-10-01T02:22:10.834Z,962.13
2022-10-01T02:23:00.824Z,962.13
2022-10-01T02:23:50.814Z,962.13
2022-10-01T02:24:40.802Z,962.16
2022-10-01T02:25:30.804Z,962.16
2022-10-01T02:26:20.804Z,962.19
2022-10-01T02:27:10.773Z,962.18
2022-10-01T02:28:00.790Z,962.18
2022-10-01T02:28:50.757Z,962.14
2022-10-01T02:29:40.745Z,962.15
2022-10-01T02:30:30.743Z,962.15
2022-10-01T02:31:20.789Z,962.15
2022-10-01T02:32:10.742Z,962.18
2022-10-01T02:33:00.710Z,962.16
2022-10-01T02:33:50.708Z,962.12
2022-10-01T02:34:40.696Z,962.13
2022-10-01T02:35:30.682Z,962.13
2022-10-01T02:36:20.677Z,962.10
2022-10-01T02:37:10.672Z,962.08
2022-10-01T02:38:00.671Z,962.13
2022-10-01T02:38:50.656Z,962.13
2022-10-01T02:39:40.639Z,962.03
2022-10-01T02:40:30.638Z,962.10
2022-10-01T02:41:20.619Z,962.08
2022-10-01T02:42:10.613Z,962.11
2022-10-01T02:43:00.602Z,962.11
2022-10-01T02:43:50.641Z,962.08
2022-10-01T02:44:40.580Z,962.09
2022-10-01T02:45:30.598Z,962.06
2022-10-01T02:46:20.610Z,962.04
2022-10-01T02:47:10.567Z,962.04
2022-10-01T02:48:00.543Z,962.01
2022-10-01T02:48:50.554Z,962.02
2022-10-01T02:49:40.549Z,962.02
2022-10-01T02:50:30.520Z,961.98
2022-10-01T02:51:20.510Z,961.97
2022-10-01T02:52:10.499Z,962.00
2022-10-01T02:53:00.487Z,962.00
2022-10-01T02:53:50.501Z,962.01
2022-10-01T02:54:40.480Z,961.95
2022-10-01T02:55:30.466Z,961.98
2022-10-01T02:56:20.456Z,961.97
2022-10-01T02:57:10.448Z,961.97
2022-10-01T02:58:00.438Z,961.95
2022-10-01T02:58:50.450Z,961.92
2022-10-01T02:59:40.407Z,961.93
2022-10-01T03:00:30.408Z,961.87
2022-10-01T03:01:20.416Z,961.87
2022-10-01T03:02:10.501Z,961.86
2022-10-01T03:03:00.408Z,961.86
2022-10-01T03:03:50.367Z,961.91
2022-10-01T03:04:40.387Z,961.88
2022-10-01T03:05:30.356Z,961.87
2022-10-01T03:06:20.345Z,961.87
2022-10-01T03:07:10.354Z,961.87
2022-10-01T03:08:00.323Z,961.85
2022-10-01T03:08:50.316Z,961.87
2022-10-01T03:09:40.304Z,961.91
2022-10-01T03:10:30.316Z,961.95
2022-10-01T03:11:20.286Z,962.05
2022-10-01T03:12:10.286Z,962.02
2022-10-01T03:13:00.265Z,962.05
2022-10-01T03:13:50.267Z,962.05
2022-10-01T03:14:40.255Z,962.08
2022-10-01T03:15:30.245Z,962.07
2022-10-01T03:16:20.303Z,962.03
2022-10-01T03:17:10.225Z,962.08
2022-10-01T03:18:00.213Z,962.06
2022-10-01T03:18:50.205Z,962.08
2022-10-01T03:19:40.196Z,962.06
2022-10-01T03:20:30.199Z,962.06
2022-10-01T03:21:20.173Z,962.15
2022-10-01T03:22:10.224Z,962.14
2022-10-01T03:23:00.156Z,962.14
2022-10-01T03:23:50.154Z,962.12
2022-10-01T03:24:40.153Z,962.14
2022-10-01T03:25:30.140Z,962.10
2022-10-01T03:26:20.124Z,962.15
2022-10-01T03:27:10.117Z,962.11
2022-10-01T03:28:00.222Z,962.13
2022-10-01T03:28:50.095Z,962.09
2022-10-01T03:29:40.092Z,962.12
2022-10-01T03:30:30.085Z,962.06
2022-10-01T03:31:20.089Z,962.05
2022-10-01T03:32:10.064Z,962.07
2022-10-01T03:33:00.053Z,962.03
2022-10-01T03:33:50.064Z,962.03
2022-10-01T03:34:40.032Z,961.99
2022-10-01T03:35:30.023Z,961.99
2022-10-01T03:36:20.011Z,962.05
2022-10-01T03:37:10.001Z,961.96
2022-10-01T03:37:59.991Z,962.01
2022-10-01T03:38:49.987Z,962.01
2022-10-01T03:39:40.003Z,961.98
2022-10-01T03:40:29.961Z,961.94
2022-10-01T03:41:19.962Z,961.95
2022-10-01T03:42:09.952Z,961.89
2022-10-01T03:42:59.931Z,961.85
2022-10-01T03:43:49.938Z,961.85
2022-10-01T03:44:39.921Z,961.86
2022-10-01T03:45:29.997Z,961.85
2022-10-01T03:46:19.910Z,961.88
2022-10-01T03:47:09.901Z,961.89
2022-10-01T03:47:59.883Z,961.88
2022-10-01T03:48:49.871Z,961.87
2022-10-01T03:49:39.866Z,961.95
2022-10-01T03:50:29.862Z,961.90
2022-10-01T03:51:20.035Z,961.92
2022-10-01T03:52:09.840Z,961.88
2022-10-01T03:52:59.831Z,961.89
2022-10-01T03:53:49.821Z,961.90
2022-10-01T03:54:39.806Z,961.85
2022-10-01T03:55:29.804Z,961.86
2022-10-01T03:56:19.789Z,961.83
2022-10-01T03:57:10.650Z,961.84
2022-10-01T03:57:59.768Z,961.85
2022-10-01T03:58:49.772Z,961.85
2022-10-01T03:59:39.758Z,961.89
2022-10-01T04:00:29.747Z,961.92
2022-10-01T04:01:19.780Z,961.85
2022-10-01T04:02:09.883Z,961.91
2022-10-01T04:03:00.077Z,961.92
2022-10-01T04:03:49.708Z,961.90
2022-10-01T04:04:39.696Z,961.88
2022-10-01T04:05:29.686Z,961.80
2022-10-01T04:06:19.677Z,961.84
2022-10-01T04:07:09.677Z,961.87
2022-10-01T04:07:59.657Z,961.84
2022-10-01T04:08:49.699Z,961.80
2022-10-01T04:09:39.638Z,961.80
2022-10-01T04:10:29.639Z,961.78
2022-10-01T04:11:19.619Z,961.76
2022-10-01T04:12:09.617Z,961.71
2022-10-01T04:12:59.607Z,961.79
2022-10-01T04:13:49.596Z,961.75
2022-10-01T04:14:39.613Z,961.74
2022-10-01T04:15:29.583Z,961.79
2022-10-01T04:16:19.657Z,961.72
2022-10-01T04:17:09.558Z,961.75
2022-10-01T04:17:59.548Z,961.71
2022-10-01T04:18:49.546Z,961.70
2022-10-01T04:19:39.534Z,961.72
2022-10-01T04:20:29.551Z,961.72
2022-10-01T04:21:19.517Z,961.72
2022-10-01T04:22:09.635Z,961.72
2022-10-01T04:22:59.526Z,961.68
2022-10-01T04:23:49.486Z,961.66
2022-10-01T04:24:39.475Z,961.59
2022-10-01T04:25:29.468Z,961.68
2022-10-01T04:26:19.467Z,961.67
2022-10-01T04:27:09.456Z,961.63
2022-10-01T04:27:59.494Z,961.63
2022-10-01T04:28:49.436Z,961.64
2022-10-01T04:29:40.373Z,961.74
2022-10-01T04:30:29.413Z,961.68
2022-10-01T04:31:19.458Z,961.65
2022-10-01T04:32:09.393Z,961.70
2022-10-01T04:32:59.385Z,961.67
2022-10-01T04:33:49.403Z,961.68
2022-10-01T04:34:39.372Z,961.65
2022-10-01T04:35:29.363Z,961.65
2022-10-01T04:36:19.353Z,961.71
2022-10-01T04:37:09.342Z,961.75
2022-10-01T04:37:59.337Z,961.73
2022-10-01T04:38:49.327Z,961.71
2022-10-01T04:39:39.333Z,961.67
2022-10-01T04:40:29.302Z,961.69
2022-10-01T04:41:19.292Z,961.67
2022-10-01T04:42:09.280Z,961.74
2022-10-01T04:42:59.285Z,961.66
2022-10-01T04:43:49.264Z,961.68
2022-10-01T04:44:39.259Z,961.69
2022-10-01T04:45:29.271Z,961.66
2022-10-01T04:46:19.264Z,961.73
2022-10-01T04:47:09.323Z,961.71
2022-10-01T04:47:59.220Z,961.63
2022-10-01T04:48:49.209Z,961.66
2022-10-01T04:49:39.204Z,961.64
2022-10-01T04:50:29.189Z,961.66
2022-10-01T04:51:19.405Z,961.67
2022-10-01T04:52:09.169Z,961.64
2022-10-01T04:52:59.169Z,961.62
2022-10-01T04:53:49.161Z,961.60
2022-10-01T04:54:39.149Z,961.60
2022-10-01T04:55:29.137Z,961.60
2022-10-01T04:56:19.136Z,961.53
2022-10-01T04:57:09.138Z,961.51
2022-10-01T04:57:59.120Z,961.57
2022-10-01T04:58:49.117Z,961.50
2022-10-01T04:59:39.090Z,961.43
2022-10-01T05:00:29.080Z,961.53
2022-10-01T05:01:19.130Z,961.56
2022-10-01T05:02:09.099Z,961.46
2022-10-01T05:02:59.081Z,961.46
2022-10-01T05:03:49.046Z,961.44
2022-10-01T05:04:39.251Z,961.50
2022-10-01T05:05:29.031Z,961.38
2022-10-01T05:06:19.020Z,961.49
2022-10-01T05:07:09.008Z,961.47
2022-10-01T05:07:59.005Z,961.47
2022-10-01T05:08:48.986Z,961.40
2022-10-01T05:09:38.985Z,961.43
2022-10-01T05:10:28.997Z,961.47
2022-10-01T05:11:18.967Z,961.37
2022-10-01T05:12:08.956Z,961.46
2022-10-01T05:12:58.948Z,961.42
2022-10-01T05:13:48.935Z,961.36
2022-10-01T05:14:38.927Z,961.35
2022-10-01T05:15:28.916Z,961.39
2022-10-01T05:16:18.987Z,961.32
2022-10-01T05:17:08.895Z,961.35
2022-10-01T05:17:58.899Z,961.32
2022-10-01T05:18:48.874Z,961.32
2022-10-01T05:19:38.876Z,961.37
2022-10-01T05:20:28.863Z,961.32
2022-10-01T05:21:18.856Z,961.37
2022-10-01T05:22:08.872Z,961.27
2022-10-01T05:22:58.833Z,961.28
2022-10-01T05:23:48.826Z,961.29
2022-10-01T05:24:38.825Z,961.34
2022-10-01T05:25:28.803Z,961.37
2022-10-01T05:26:18.801Z,961.37
2022-10-01T05:27:08.784Z,961.39
2022-10-01T05:27:59.076Z,961.32
2022-10-01T05:28:48.772Z,961.31
2022-10-01T05:29:38.763Z,961.35
2022-10-01T05:30:28.751Z,961.41
2022-10-01T05:31:18.822Z,961.26
2022-10-01T05:32:08.734Z,961.34
2022-10-01T05:32:58.722Z,961.34
2022-10-01T05:33:48.735Z,961.34
2022-10-01T05:34:38.711Z,961.29
2022-10-01T05:35:28.697Z,961.28
2022-10-01T05:36:18.700Z,961.26
2022-10-01T05:37:08.680Z,961.23
2022-10-01T05:37:58.672Z,961.18
2022-10-01T05:38:48.663Z,961.30
2022-10-01T05:39:40.511Z,961.22
2022-10-01T05:40:28.772Z,961.19
2022-10-01T05:41:18.631Z,961.21
2022-10-01T05:42:08.621Z,961.25
2022-10-01T05:42:58.615Z,961.28
2022-10-01T05:43:48.604Z,961.29
2022-10-01T05:44:38.601Z,961.22
2022-10-01T05:45:28.648Z,961.28
2022-10-01T05:46:18.601Z,961.33
2022-10-01T05:47:08.564Z,961.33
2022-10-01T05:47:58.587Z,961.17
2022-10-01T05:48:48.540Z,961.28
2022-10-01T05:49:38.640Z,961.31
2022-10-01T05:50:28.541Z,961.33
2022-10-01T05:51:18.530Z,961.30
2022-10-01T05:52:08.710Z,961.31
2022-10-01T05:52:58.499Z,961.28
2022-10-01T05:53:50.471Z,961.31
2022-10-01T05:54:38.488Z,961.36
2022-10-01T05:55:28.479Z,961.31
2022-10-01T05:56:18.468Z,961.29
2022-10-01T05:57:08.459Z,961.28
2022-10-01T05:57:58.468Z,961.20
2022-10-01T05:58:48.449Z,961.25
2022-10-01T05:59:38.433Z,961.28
2022-10-01T06:00:28.478Z,961.21
2022-10-01T06:01:18.471Z,961.08
2022-10-01T06:02:08.459Z,961.18
2022-10-01T06:02:58.528Z,961.10
2022-10-01T06:03:48.410Z,961.12
2022-10-01T06:04:41.188Z,961.23
2022-10-01T06:05:28.358Z,961.24
2022-10-01T06:06:18.358Z,961.16
2022-10-01T06:07:08.348Z,961.09
2022-10-01T06:07:58.340Z,961.13
2022-10-01T06:08:48.317Z,961.07
2022-10-01T06:09:38.348Z,961.05
2022-10-01T06:10:28.330Z,961.15
2022-10-01T06:11:18.304Z,961.12
2022-10-01T06:12:08.287Z,961.05
2022-10-01T06:12:58.286Z,961.05
2022-10-01T06:13:48.270Z,961.06
2022-10-01T06:14:38.262Z,961.01
2022-10-01T06:15:28.267Z,961.04
2022-10-01T06:16:18.392Z,961.07
2022-10-01T06:17:08.226Z,961.08
2022-10-01T06:17:58.231Z,961.06
2022-10-01T06:18:48.209Z,961.03
2022-10-01T06:19:38.206Z,961.10
2022-10-01T06:20:28.206Z,961.05
2022-10-01T06:21:18.230Z,961.10
2022-10-01T06:22:09.074Z,961.14
2022-10-01T06:22:58.167Z,961.17
2022-10-01T06:23:48.155Z,961.11
2022-10-01T06:24:38.157Z,961.10
2022-10-01T06:25:28.139Z,961.12
2022-10-01T06:26:18.134Z,961.08
2022-10-01T06:27:08.115Z,961.05
2022-10-01T06:27:58.317Z,961.08
2022-10-01T06:28:48.106Z,961.07
2022-10-01T06:29:38.099Z,961.11
2022-10-01T06:30:28.075Z,961.07
2022-10-01T06:31:18.142Z,961.12
2022-10-01T06:32:08.107Z,961.13
2022-10-01T06:32:58.166Z,961.14
2022-10-01T06:33:48.868Z,961.16
2022-10-01T06:34:38.043Z,961.22
2022-10-01T06:35:28.033Z,961.25
2022-10-01T06:36:18.025Z,961.25
2022-10-01T06:37:08.012Z,961.21
2022-10-01T06:37:58.001Z,961.21
2022-10-01T06:38:47.986Z,961.18
2022-10-01T06:39:38.010Z,961.11
2022-10-01T06:40:27.987Z,961.11
2022-10-01T06:41:18.059Z,961.11
2022-10-01T06:42:07.952Z,961.07
2022-10-01T06:42:57.953Z,961.05
2022-10-01T06:43:47.933Z,961.16
2022-10-01T06:44:37.925Z,961.17
2022-10-01T06:45:27.966Z,961.15
2022-10-01T06:46:17.983Z,961.09
2022-10-01T06:47:07.892Z,961.12
2022-10-01T06:47:57.891Z,961.10
2022-10-01T06:48:47.894Z,961.15
2022-10-01T06:49:37.872Z,961.21
2022-10-01T06:50:27.861Z,961.14
2022-10-01T06:51:17.947Z,961.16
2022-10-01T06:52:07.852Z,961.07
2022-10-01T06:52:57.841Z,961.16
2022-10-01T06:53:47.831Z,961.01
2022-10-01T06:54:37.822Z,961.00
2022-10-01T06:55:27.801Z,960.99
2022-10-01T06:56:17.799Z,960.99
2022-10-01T06:57:07.815Z,960.98
2022-10-01T06:57:57.781Z,961.01
2022-10-01T06:58:47.779Z,960.96
2022-10-01T06:59:37.761Z,960.99
2022-10-01T07:00:27.751Z,961.00
2022-10-01T07:01:17.781Z,961.06
2022-10-01T07:02:07.763Z,961.03
2022-10-01T07:02:57.749Z,961.02
2022-10-01T07:03:47.709Z,961.01
2022-10-01T07:04:37.710Z,961.02
2022-10-01T07:05:27.693Z,960.90
2022-10-01T07:06:17.684Z,960.96
2022-10-01T07:07:07.678Z,961.00
2022-10-01T07:07:57.671Z,961.03
2022-10-01T07:08:47.690Z,961.10
2022-10-01T07:09:37.650Z,961.04
2022-10-01T07:10:27.641Z,961.02
2022-10-01T07:11:17.631Z,961.05
2022-10-01T07:12:07.621Z,961.03
2022-10-01T07:12:57.611Z,961.07
2022-10-01T07:13:52.343Z,961.08
2022-10-01T07:14:38.619Z,961.02
2022-10-01T07:15:27.580Z,961.05
2022-10-01T07:16:17.603Z,961.03
2022-10-01T07:17:07.563Z,961.05
2022-10-01T07:17:57.564Z,961.02
2022-10-01T07:18:47.539Z,961.05
2022-10-01T07:19:37.539Z,961.02
2022-10-01T07:20:27.741Z,960.90
2022-10-01T07:21:17.559Z,960.92
2022-10-01T07:22:07.503Z,960.90
2022-10-01T07:22:57.498Z,960.97
2022-10-01T07:23:47.486Z,960.99
2022-10-01T07:24:37.489Z,960.96
2022-10-01T07:25:27.479Z,960.99
2022-10-01T07:26:17.487Z,960.95
2022-10-01T07:27:07.700Z,960.92
2022-10-01T07:27:57.484Z,960.94
2022-10-01T07:28:47.428Z,960.97
2022-10-01T07:29:37.427Z,961.01
2022-10-01T07:30:27.424Z,961.02
2022-10-01T07:31:17.440Z,960.95
2022-10-01T07:32:07.631Z,961.06
2022-10-01T07:32:57.391Z,961.11
2022-10-01T07:33:47.379Z,961.11
2022-10-01T07:34:37.370Z,961.09
2022-10-01T07:35:27.361Z,961.11
2022-10-01T07:36:17.348Z,960.98
2022-10-01T07:37:07.338Z,960.95
2022-10-01T07:37:57.386Z,961.01
2022-10-01T07:38:47.319Z,961.01
2022-10-01T07:39:37.315Z,961.00
2022-10-01T07:40:27.309Z,961.01
2022-10-01T07:41:17.296Z,961.04
2022-10-01T07:42:07.275Z,961.10
2022-10-01T07:42:57.284Z,961.10
2022-10-01T07:43:47.476Z,961.03
2022-10-01T07:44:37.267Z,960.99
2022-10-01T07:45:27.269Z,961.04
2022-10-01T07:46:17.319Z,960.99
2022-10-01T07:47:07.225Z,961.16
2022-10-01T07:47:57.224Z,961.10
2022-10-01T07:48:47.207Z,961.18
2022-10-01T07:49:37.233Z,961.15
2022-10-01T07:50:27.216Z,961.04
2022-10-01T07:51:17.184Z,961.08
2022-10-01T07:52:12.384Z,961.11
2022-10-01T07:52:58.164Z,961.17
2022-10-01T07:53:47.155Z,961.13
2022-10-01T07:54:37.153Z,961.19
2022-10-01T07:55:27.345Z,961.12
2022-10-01T07:56:17.136Z,961.07
2022-10-01T07:57:07.114Z,961.14
2022-10-01T07:57:57.104Z,961.13
2022-10-01T07:58:47.094Z,961.00
2022-10-01T07:59:37.094Z,961.09
2022-10-01T08:00:27.084Z,961.13
2022-10-01T08:01:17.148Z,961.18
2022-10-01T08:02:07.121Z,961.17
2022-10-01T08:02:57.052Z,961.10
2022-10-01T08:03:47.035Z,961.03
2022-10-01T08:04:37.042Z,961.02
2022-10-01T08:05:27.057Z,961.11
2022-10-01T08:06:17.012Z,960.98
2022-10-01T08:07:07.044Z,960.98
2022-10-01T08:07:56.992Z,960.92
2022-10-01T08:08:46.995Z,960.80
2022-10-01T08:09:36.980Z,960.78
2022-10-01T08:10:26.973Z,960.84
2022-10-01T08:11:16.961Z,960.77
2022-10-01T08:12:06.963Z,960.87
2022-10-01T08:12:56.982Z,960.92
2022-10-01T08:13:46.942Z,960.79
2022-10-01T08:14:36.926Z,960.93
2022-10-01T08:15:26.917Z,960.92
2022-10-01T08:16:16.931Z,960.84
2022-10-01T08:17:06.891Z,960.81
2022-10-01T08:17:56.881Z,960.80
2022-10-01T08:18:46.907Z,960.79
2022-10-01T08:19:36.872Z,960.91
2022-10-01T08:20:26.861Z,960.97
2022-10-01T08:21:16.852Z,960.79
2022-10-01T08:22:06.841Z,960.74
2022-10-01T08:22:56.832Z,960.89
2022-10-01T08:23:46.822Z,960.95
2022-10-01T08:24:36.861Z,960.94
2022-10-01T08:25:26.803Z,960.89
2022-10-01T08:26:16.791Z,960.93
2022-10-01T08:27:06.790Z,961.03
2022-10-01T08:27:56.818Z,961.05
2022-10-01T08:28:46.769Z,961.06
2022-10-01T08:29:36.761Z,960.99
2022-10-01T08:30:26.781Z,961.14
2022-10-01T08:31:16.802Z,961.08
2022-10-01T08:32:06.755Z,961.03
2022-10-01T08:32:56.720Z,960.85
2022-10-01T08:33:46.709Z,960.81
2022-10-01T08:34:36.700Z,960.93
2022-10-01T08:35:26.690Z,960.86
2022-10-01T08:36:16.927Z,960.92
2022-10-01T08:37:06.676Z,960.95
2022-10-01T08:37:56.667Z,960.82
2022-10-01T08:38:46.660Z,960.94
2022-10-01T08:39:36.638Z,960.88
2022-10-01T08:40:26.639Z,960.96
2022-10-01T08:41:20.134Z,960.92
2022-10-01T08:42:07.656Z,960.89
2022-10-01T08:42:56.609Z,960.96
2022-10-01T08:43:46.599Z,960.92
2022-10-01T08:44:36.590Z,960.91
2022-10-01T08:45:26.793Z,960.87
2022-10-01T08:46:16.627Z,960.97
2022-10-01T08:47:06.564Z,960.97
2022-10-01T08:47:56.785Z,960.97
2022-10-01T08:48:46.547Z,960.92
2022-10-01T08:49:36.543Z,960.96
2022-10-01T08:50:26.528Z,960.89
2022-10-01T08:51:16.517Z,961.03
2022-10-01T08:52:06.506Z,960.92
2022-10-01T08:52:56.498Z,960.98
2022-10-01T08:53:46.519Z,960.87
2022-10-01T08:54:36.478Z,960.84
2022-10-01T08:55:26.467Z,960.90
2022-10-01T08:56:16.456Z,960.88
2022-10-01T08:57:06.456Z,960.88
2022-10-01T08:57:56.439Z,961.02
2022-10-01T08:58:46.438Z,960.86
2022-10-01T08:59:36.455Z,960.89
2022-10-01T09:00:26.416Z,960.89
2022-10-01T09:01:16.474Z,960.90
2022-10-01T09:02:06.397Z,960.82
2022-10-01T09:02:56.388Z,960.79
2022-10-01T09:03:46.389Z,960.76
2022-10-01T09:04:36.409Z,960.75
2022-10-01T09:05:26.387Z,960.82
2022-10-01T09:06:16.346Z,960.77
2022-10-01T09:07:06.337Z,960.88
2022-10-01T09:07:56.324Z,960.92
2022-10-01T09:08:46.330Z,960.97
2022-10-01T09:09:36.314Z,960.91
2022-10-01T09:10:26.305Z,960.90
2022-10-01T09:11:16.507Z,960.93
2022-10-01T09:12:06.285Z,961.01
2022-10-01T09:12:56.275Z,961.00
2022-10-01T09:13:50.081Z,960.92
2022-10-01T09:14:36.255Z,961.10
2022-10-01T09:15:26.260Z,961.08
2022-10-01T09:16:16.288Z,961.06
2022-10-01T09:17:06.264Z,961.05
2022-10-01T09:17:56.215Z,961.15
2022-10-01T09:18:46.213Z,961.00
2022-10-01T09:19:36.194Z,960.86
2022-10-01T09:20:26.194Z,961.10
2022-10-01T09:21:16.181Z,961.07
2022-10-01T09:22:06.177Z,961.13
2022-10-01T09:22:56.203Z,961.04
2022-10-01T09:23:46.154Z,961.10
2022-10-01T09:24:36.144Z,961.10
2022-10-01T09:25:26.138Z,961.07
2022-10-01T09:26:16.123Z,961.08
2022-10-01T09:27:06.114Z,961.08
2022-10-01T09:27:56.193Z,961.22
2022-10-01T09:28:46.313Z,961.07
2022-10-01T09:29:36.084Z,961.01
2022-10-01T09:30:26.087Z,960.97
2022-10-01T09:31:16.134Z,961.55
2022-10-01T09:32:06.147Z,960.98
2022-10-01T09:32:56.050Z,961.04
2022-10-01T09:33:46.043Z,961.12
2022-10-01T09:34:36.675Z,961.15
2022-10-01T09:35:26.023Z,961.14
2022-10-01T09:36:16.011Z,960.92
2022-10-01T09:37:06.012Z,961.10
2022-10-01T09:37:56.001Z,961.11
2022-10-01T09:38:45.991Z,961.13
2022-10-01T09:39:35.972Z,961.09
2022-10-01T09:40:25.991Z,961.17
2022-10-01T09:41:15.951Z,961.14
2022-10-01T09:42:05.951Z,961.16
2022-10-01T09:42:55.949Z,961.08
2022-10-01T09:43:45.946Z,961.15
2022-10-01T09:44:36.131Z,961.41
2022-10-01T09:45:25.943Z,961.16
2022-10-01T09:46:15.957Z,961.04
2022-10-01T09:47:05.893Z,960.99
2022-10-01T09:47:55.882Z,960.97
2022-10-01T09:48:45.882Z,961.14
2022-10-01T09:49:35.869Z,961.23
2022-10-01T09:50:25.890Z,961.22
2022-10-01T09:51:15.868Z,961.15
2022-10-01T09:52:05.839Z,961.10
2022-10-01T09:52:55.829Z,961.14
2022-10-01T09:53:45.820Z,961.04
2022-10-01T09:54:35.817Z,961.08
2022-10-01T09:55:25.802Z,961.17
2022-10-01T09:56:15.790Z,961.09
2022-10-01T09:57:05.810Z,960.98
2022-10-01T09:57:55.768Z,961.13
2022-10-01T09:58:45.769Z,961.07
2022-10-01T09:59:35.756Z,961.08
2022-10-01T10:00:25.750Z,961.17
2022-10-01T10:01:15.738Z,961.23
2022-10-01T10:02:05.752Z,961.32
2022-10-01T10:02:55.910Z,961.34
2022-10-01T10:03:45.718Z,961.38
2022-10-01T10:04:35.699Z,961.22
2022-10-01T10:05:25.697Z,961.22
2022-10-01T10:06:15.687Z,961.15
2022-10-01T10:07:05.677Z,961.18
2022-10-01T10:07:55.666Z,961.15
2022-10-01T10:08:45.878Z,961.31
2022-10-01T10:09:35.666Z,961.37
2022-10-01T10:10:26.179Z,961.08
2022-10-01T10:11:15.650Z,961.37
2022-10-01T10:12:05.625Z,961.17
2022-10-01T10:12:55.608Z,961.40
2022-10-01T10:13:45.600Z,961.33
2022-10-01T10:14:35.621Z,961.33
2022-10-01T10:15:25.580Z,961.39
2022-10-01T10:16:15.632Z,961.46
2022-10-01T10:17:05.587Z,961.48
2022-10-01T10:17:55.564Z,961.54
2022-10-01T10:18:45.582Z,961.62
2022-10-01T10:19:35.538Z,961.64
2022-10-01T10:20:26.228Z,961.63
2022-10-01T10:21:15.511Z,961.63
2022-10-01T10:22:05.498Z,961.49
2022-10-01T10:22:55.496Z,961.50
2022-10-01T10:23:45.488Z,961.62